createdAt,value
2023-03-21T00:00:43.584Z,17.73
2023-03-21T00:03:10.396Z,14.43
2023-03-21T00:05:40.915Z,17.88
2023-03-21T00:08:08.150Z,16.63
2023-03-21T00:10:43.113Z,19.17
2023-03-21T00:13:11.119Z,17.23
2023-03-21T00:15:44.256Z,16.17
2023-03-21T00:18:25.734Z,15.10
2023-03-21T00:21:29.406Z,17.33
2023-03-21T00:23:46.642Z,23.88
2023-03-21T00:26:14.735Z,18.10
2023-03-21T00:28:42.541Z,20.05
2023-03-21T00:31:09.884Z,18.33
2023-03-21T00:33:37.885Z,19.33
2023-03-21T00:36:06.015Z,20.67
2023-03-21T00:38:33.473Z,20.13
2023-03-21T00:41:04.697Z,24.67
2023-03-21T00:43:34.306Z,20.95
2023-03-21T00:46:00.948Z,23.63
2023-03-21T00:48:28.013Z,18.63
2023-03-21T00:50:57.322Z,20.45
2023-03-21T00:53:24.207Z,17.80
2023-03-21T00:55:51.901Z,17.90
2023-03-21T00:58:18.848Z,20.33
2023-03-21T01:00:46.157Z,21.00
2023-03-21T01:03:24.315Z,23.23
2023-03-21T01:05:52.286Z,19.33
2023-03-21T01:08:26.814Z,18.20
2023-03-21T01:11:02.384Z,22.88
2023-03-21T01:13:28.982Z,21.25
2023-03-21T01:15:58.440Z,19.33
2023-03-21T01:18:27.688Z,18.30
2023-03-21T01:20:55.795Z,23.15
2023-03-21T01:23:24.676Z,23.65
2023-03-21T01:25:53.064Z,27.40
2023-03-21T01:28:19.987Z,27.83
2023-03-21T01:30:47.002Z,28.48
2023-03-21T01:33:14.221Z,26.25
2023-03-21T01:35:49.120Z,30.60
2023-03-21T01:38:18.330Z,27.85
2023-03-21T01:40:47.947Z,33.00
2023-03-21T01:43:24.295Z,35.95
2023-03-21T01:46:21.645Z,30.23
2023-03-21T01:48:51.829Z,29.75
2023-03-21T01:51:19.659Z,27.75
2023-03-21T01:53:47.680Z,33.20
2023-03-21T01:56:22.725Z,33.28
2023-03-21T01:58:50.673Z,29.33
2023-03-21T02:01:17.566Z,38.47
2023-03-21T02:03:47.216Z,34.15
2023-03-21T02:06:16.330Z,33.38
2023-03-21T02:08:43.009Z,39.22
2023-03-21T02:11:09.839Z,34.15
2023-03-21T02:13:38.228Z,39.75
2023-03-21T02:16:12.605Z,39.28
2023-03-21T02:18:49.132Z,37.58
2023-03-21T02:21:42.300Z,37.60
2023-03-21T02:25:01.324Z,35.33
2023-03-21T02:27:34.660Z,36.90
2023-03-21T02:30:49.269Z,36.97
2023-03-21T02:33:38.007Z,35.95
2023-03-21T02:36:22.141Z,36.20
2023-03-21T02:38:56.004Z,33.55
2023-03-21T02:41:40.093Z,39.28
2023-03-21T02:44:12.729Z,39.40
2023-03-21T02:46:53.736Z,35.47
2023-03-21T02:51:51.516Z,39.80
2023-03-21T02:54:35.387Z,38.08
2023-03-21T02:57:11.574Z,38.92
2023-03-21T02:59:51.570Z,36.00
2023-03-21T03:02:24.580Z,40.33
2023-03-21T03:04:51.146Z,40.00
2023-03-21T03:07:33.293Z,37.20
2023-03-21T03:10:22.888Z,38.78
2023-03-21T03:12:59.355Z,36.60
2023-03-21T03:15:35.612Z,39.60
2023-03-21T03:18:10.366Z,43.53
2023-03-21T03:20:48.016Z,42.45
2023-03-21T03:23:24.985Z,41.38
2023-03-21T03:25:58.226Z,41.65
2023-03-21T03:28:30.100Z,34.97
2023-03-21T03:31:08.838Z,36.60
2023-03-21T03:33:40.427Z,37.28
2023-03-21T03:36:21.519Z,37.60
2023-03-21T03:38:52.069Z,36.88
2023-03-21T03:41:25.797Z,35.17
2023-03-21T03:43:57.752Z,36.10
2023-03-21T03:46:30.394Z,39.58
2023-03-21T03:49:01.905Z,41.93
2023-03-21T03:51:34.289Z,36.63
2023-03-21T03:54:04.446Z,40.53
2023-03-21T03:56:33.209Z,43.00
2023-03-21T03:59:03.481Z,42.42
2023-03-21T04:01:30.295Z,39.35
2023-03-21T04:04:11.927Z,34.22
2023-03-21T04:06:38.831Z,38.10
2023-03-21T04:09:13.616Z,46.05
2023-03-21T04:11:46.942Z,37.78
2023-03-21T04:14:13.633Z,35.97
2023-03-21T04:16:40.255Z,41.65
2023-03-21T04:19:06.873Z,35.83
2023-03-21T04:21:33.560Z,38.20
2023-03-21T04:24:00.277Z,35.83
2023-03-21T04:26:27.001Z,39.67
2023-03-21T04:28:54.999Z,40.67
2023-03-21T04:31:25.971Z,40.15
2023-03-21T04:33:52.921Z,41.50
2023-03-21T04:36:19.606Z,41.90
2023-03-21T04:38:46.424Z,36.97
2023-03-21T04:41:12.983Z,41.67
2023-03-21T04:43:39.578Z,39.70
2023-03-21T04:46:07.720Z,40.45
2023-03-21T04:48:34.429Z,37.97
2023-03-21T04:51:01.190Z,42.95
2023-03-21T04:53:27.761Z,40.72
2023-03-21T04:55:55.615Z,42.40
2023-03-21T04:58:22.305Z,40.40
2023-03-21T05:00:48.931Z,43.05
2023-03-21T05:03:16.888Z,42.90
2023-03-21T05:05:43.528Z,42.13
2023-03-21T05:08:10.172Z,37.55
2023-03-21T05:10:36.830Z,41.63
2023-03-21T05:13:03.579Z,43.33
2023-03-21T05:15:30.252Z,49.35
2023-03-21T05:17:57.053Z,44.88
2023-03-21T05:20:25.015Z,44.90
2023-03-21T05:22:51.771Z,47.10
2023-03-21T05:25:19.152Z,39.83
2023-03-21T05:27:45.723Z,41.97
2023-03-21T05:30:15.092Z,45.03
2023-03-21T05:32:42.040Z,40.53
2023-03-21T05:35:09.377Z,43.55
2023-03-21T05:37:37.678Z,40.47
2023-03-21T05:40:05.553Z,43.30
2023-03-21T05:42:32.680Z,41.78
2023-03-21T05:44:59.279Z,40.38
2023-03-21T05:47:25.981Z,39.63
2023-03-21T05:49:52.675Z,39.65
2023-03-21T05:52:19.374Z,41.42
2023-03-21T05:54:47.829Z,43.08
2023-03-21T05:57:14.578Z,40.17
2023-03-21T05:59:41.371Z,48.25
2023-03-21T06:02:08.001Z,41.70
2023-03-21T06:04:34.618Z,44.63
2023-03-21T06:07:01.358Z,44.78
2023-03-21T06:09:27.990Z,45.08
2023-03-21T06:11:57.159Z,42.00
2023-03-21T06:14:24.777Z,52.20
2023-03-21T06:16:51.553Z,47.88
2023-03-21T06:19:18.242Z,38.63
2023-03-21T06:21:44.931Z,43.67
2023-03-21T06:24:11.653Z,39.05
2023-03-21T06:26:38.318Z,43.88
2023-03-21T06:29:06.298Z,45.78
2023-03-21T06:31:32.897Z,45.20
2023-03-21T06:33:59.546Z,49.13
2023-03-21T06:36:26.138Z,47.13
2023-03-21T06:38:52.912Z,43.08
2023-03-21T06:41:19.591Z,48.60
2023-03-21T06:43:46.374Z,44.15
2023-03-21T06:46:14.393Z,49.08
2023-03-21T06:48:41.144Z,42.95
2023-03-21T06:51:07.816Z,42.28
2023-03-21T06:53:36.080Z,44.78
2023-03-21T06:56:02.826Z,44.28
2023-03-21T06:58:29.637Z,47.45
2023-03-21T07:00:58.652Z,49.25
2023-03-21T07:03:26.799Z,43.58
2023-03-21T07:05:53.565Z,44.10
2023-03-21T07:08:20.555Z,47.90
2023-03-21T07:10:47.366Z,46.25
2023-03-21T07:13:14.672Z,41.90
2023-03-21T07:15:41.278Z,42.17
2023-03-21T07:18:09.331Z,44.00
2023-03-21T07:20:37.357Z,43.50
2023-03-21T07:23:04.600Z,42.97
2023-03-21T07:25:31.283Z,41.50
2023-03-21T07:27:57.970Z,42.17
2023-03-21T07:30:24.628Z,36.53
2023-03-21T07:32:51.278Z,42.70
2023-03-21T07:35:18.411Z,39.92
2023-03-21T07:37:46.405Z,39.78
2023-03-21T07:40:13.330Z,42.50
2023-03-21T07:42:41.375Z,40.17
2023-03-21T07:45:09.836Z,42.17
2023-03-21T07:47:36.671Z,42.22
2023-03-21T07:50:03.833Z,39.55
2023-03-21T07:52:30.674Z,37.45
2023-03-21T07:54:58.886Z,38.22
2023-03-21T07:57:25.555Z,38.25
2023-03-21T07:59:52.176Z,38.85
2023-03-21T08:02:18.877Z,38.63
2023-03-21T08:04:45.918Z,34.20
2023-03-21T08:07:13.135Z,33.10
2023-03-21T08:09:40.109Z,38.90
2023-03-21T08:12:08.179Z,32.65
2023-03-21T08:14:34.815Z,42.85
2023-03-21T08:17:01.470Z,35.35
2023-03-21T08:19:28.055Z,36.72
2023-03-21T08:21:54.796Z,31.67
2023-03-21T08:24:21.424Z,33.50
2023-03-21T08:26:48.034Z,36.67
2023-03-21T08:29:16.219Z,35.28
2023-03-21T08:31:42.825Z,29.27
2023-03-21T08:34:09.494Z,38.08
2023-03-21T08:36:36.903Z,35.60
2023-03-21T08:39:04.030Z,31.33
2023-03-21T08:41:30.877Z,29.95
2023-03-21T08:43:57.485Z,33.00
2023-03-21T08:46:25.714Z,31.55
2023-03-21T08:48:52.408Z,45.28
2023-03-21T08:51:19.140Z,32.00
2023-03-21T08:53:45.907Z,46.88
2023-03-21T08:56:12.876Z,34.33
2023-03-21T08:58:39.481Z,31.70
2023-03-21T09:01:06.543Z,29.42
2023-03-21T09:03:34.552Z,34.90
2023-03-21T09:06:01.127Z,31.42
2023-03-21T09:08:27.937Z,28.77
2023-03-21T09:10:55.043Z,30.85
2023-03-21T09:13:22.090Z,32.15
2023-03-21T09:15:49.197Z,33.00
2023-03-21T09:18:16.258Z,29.95
2023-03-21T09:20:45.697Z,31.33
2023-03-21T09:23:13.742Z,28.23
2023-03-21T09:25:40.927Z,27.15
2023-03-21T09:28:07.974Z,29.15
2023-03-21T09:30:36.156Z,31.35
2023-03-21T09:33:04.738Z,29.42
2023-03-21T09:35:31.608Z,31.50
2023-03-21T09:37:59.687Z,30.00
2023-03-21T09:40:43.857Z,30.50
2023-03-21T09:43:22.488Z,33.53
2023-03-21T09:45:57.462Z,30.23
2023-03-21T09:48:56.696Z,29.58
2023-03-21T09:51:27.609Z,27.45
2023-03-21T09:53:57.349Z,30.20
2023-03-21T09:56:25.074Z,26.08
2023-03-21T09:58:54.851Z,27.75
2023-03-21T10:01:26.010Z,28.23
2023-03-21T10:03:53.684Z,27.08
2023-03-21T10:06:22.141Z,26.60
2023-03-21T10:08:49.291Z,24.75
2023-03-21T10:11:19.723Z,24.00
2023-03-21T10:13:51.188Z,26.38
2023-03-21T10:16:23.215Z,23.65
2023-03-21T10:18:50.587Z,21.38
2023-03-21T10:21:43.399Z,25.80
2023-03-21T10:24:12.326Z,26.50
2023-03-21T10:26:40.700Z,24.30
2023-03-21T10:29:09.629Z,22.10
2023-03-21T10:31:36.560Z,22.98
2023-03-21T10:34:09.695Z,21.13
2023-03-21T10:36:36.392Z,22.60
2023-03-21T10:39:05.892Z,21.75
2023-03-21T10:41:33.293Z,21.90
2023-03-21T10:44:11.295Z,21.48
2023-03-21T10:46:38.472Z,20.30
2023-03-21T10:49:07.769Z,23.20
2023-03-21T10:51:37.667Z,16.85
2023-03-21T10:54:08.037Z,19.50
2023-03-21T10:56:38.319Z,19.02
2023-03-21T10:59:08.693Z,18.98
2023-03-21T11:01:39.064Z,20.88
2023-03-21T11:04:14.366Z,18.92
2023-03-21T11:06:42.934Z,19.00
2023-03-21T11:09:15.120Z,20.50
2023-03-21T11:11:50.850Z,18.90
2023-03-21T11:14:36.616Z,19.75
2023-03-21T11:17:18.679Z,23.35
2023-03-21T11:19:48.425Z,19.85
2023-03-21T11:22:15.744Z,23.13
2023-03-21T11:24:47.660Z,19.10
2023-03-21T11:27:14.335Z,21.42
2023-03-21T11:29:47.454Z,21.02
2023-03-21T11:32:21.108Z,25.20
2023-03-21T11:34:50.015Z,19.42
2023-03-21T11:37:24.906Z,21.10
2023-03-21T11:39:56.402Z,18.65
2023-03-21T11:42:30.815Z,19.38
2023-03-21T11:45:10.558Z,19.52
2023-03-21T11:47:37.335Z,20.52
2023-03-21T11:50:16.259Z,24.58
2023-03-21T11:52:52.219Z,19.00
2023-03-21T11:55:41.495Z,18.10
2023-03-21T11:58:32.023Z,19.25
2023-03-21T12:01:07.715Z,18.65
2023-03-21T12:04:07.559Z,18.40
2023-03-21T12:06:38.143Z,20.83
2023-03-21T12:09:27.912Z,18.25
2023-03-21T12:12:11.674Z,15.98
2023-03-21T12:17:25.443Z,13.63
2023-03-21T12:20:14.384Z,14.25
2023-03-21T12:22:51.085Z,18.25
2023-03-21T12:25:22.944Z,13.90
2023-03-21T12:28:02.926Z,17.05
2023-03-21T12:30:38.497Z,15.10
2023-03-21T12:33:21.055Z,12.20
2023-03-21T12:35:59.440Z,15.23
2023-03-21T12:38:36.350Z,14.30
2023-03-21T12:41:18.549Z,16.00
2023-03-21T12:43:48.115Z,16.45
2023-03-21T12:46:22.545Z,13.73
2023-03-21T12:48:56.155Z,13.07
2023-03-21T12:51:29.056Z,14.20
2023-03-21T12:54:02.229Z,10.70
2023-03-21T12:56:32.780Z,11.73
2023-03-21T12:59:06.310Z,13.77
2023-03-21T13:01:36.768Z,11.57
2023-03-21T13:04:29.794Z,12.30
2023-03-21T13:07:00.536Z,14.50
2023-03-21T13:09:37.602Z,12.95
2023-03-21T13:12:21.956Z,12.35
2023-03-21T13:15:02.663Z,13.05
2023-03-21T13:17:35.733Z,12.55
2023-03-21T13:20:12.918Z,12.20
2023-03-21T13:22:39.582Z,12.50
2023-03-21T13:25:16.591Z,9.88
2023-03-21T13:27:43.500Z,11.73
2023-03-21T13:30:20.548Z,10.30
2023-03-21T13:32:49.585Z,9.07
2023-03-21T13:35:20.974Z,12.95
2023-03-21T13:37:52.257Z,9.10
2023-03-21T13:40:24.232Z,10.93
2023-03-21T13:42:53.325Z,11.75
2023-03-21T13:45:27.557Z,12.00
2023-03-21T13:47:56.447Z,11.35
2023-03-21T13:51:00.748Z,22.65
2023-03-21T13:53:32.481Z,10.13
2023-03-21T13:56:06.871Z,11.73
2023-03-21T13:58:37.062Z,11.65
2023-03-21T14:01:13.535Z,12.60
2023-03-21T14:03:41.797Z,12.60
2023-03-21T14:06:10.986Z,12.35
2023-03-21T14:08:40.700Z,11.65
2023-03-21T14:11:11.995Z,10.95
2023-03-21T14:13:50.386Z,12.25
2023-03-21T14:16:19.349Z,11.75
2023-03-21T14:18:55.274Z,12.40
2023-03-21T14:21:26.380Z,11.93
2023-03-21T14:24:00.661Z,10.25
2023-03-21T14:26:30.558Z,7.90
2023-03-21T14:28:57.942Z,25.63
2023-03-21T14:31:26.112Z,12.75
2023-03-21T14:33:56.509Z,10.32
2023-03-21T14:36:27.165Z,8.50
2023-03-21T14:39:03.892Z,12.40
2023-03-21T14:41:32.703Z,11.00
2023-03-21T14:44:11.063Z,9.60
2023-03-21T14:46:37.967Z,8.25
2023-03-21T14:49:19.263Z,10.98
2023-03-21T14:51:47.548Z,10.63
2023-03-21T14:54:16.219Z,10.57
2023-03-21T14:56:44.816Z,17.30
2023-03-21T14:59:14.425Z,12.68
2023-03-21T15:01:41.404Z,13.65
2023-03-21T15:04:08.333Z,13.52
2023-03-21T15:06:50.502Z,13.00
2023-03-21T15:09:22.205Z,12.55
2023-03-21T15:11:51.396Z,15.30
2023-03-21T15:14:21.033Z,9.60
2023-03-21T15:16:48.902Z,11.65
2023-03-21T15:19:19.380Z,10.32
2023-03-21T15:21:49.031Z,11.70
2023-03-21T15:24:22.150Z,13.93
2023-03-21T15:26:50.344Z,10.95
2023-03-21T15:29:18.129Z,8.90
2023-03-21T15:31:49.153Z,11.65
2023-03-21T15:34:22.877Z,9.40
2023-03-21T15:36:54.534Z,10.68
2023-03-21T15:39:22.597Z,9.35
2023-03-21T15:42:04.422Z,12.43
2023-03-21T15:44:32.172Z,11.40
2023-03-21T15:46:59.256Z,10.52
2023-03-21T15:49:28.574Z,12.98
2023-03-21T15:52:00.740Z,13.35
2023-03-21T15:54:31.358Z,12.27
2023-03-21T15:57:00.140Z,11.32
2023-03-21T15:59:35.048Z,13.52
2023-03-21T16:02:03.303Z,11.70
2023-03-21T16:04:30.047Z,10.32
2023-03-21T16:06:59.640Z,13.52
2023-03-21T16:09:26.702Z,13.13
2023-03-21T16:11:56.549Z,13.25
2023-03-21T16:14:24.078Z,10.38
2023-03-21T16:16:51.094Z,15.65
2023-03-21T16:19:17.909Z,14.45
2023-03-21T16:21:44.537Z,12.00
2023-03-21T16:24:11.765Z,10.52
2023-03-21T16:26:42.086Z,9.57
2023-03-21T16:29:11.999Z,10.30
2023-03-21T16:31:38.659Z,13.00
2023-03-21T16:34:05.287Z,10.85
2023-03-21T16:36:34.180Z,14.95
2023-03-21T16:39:00.742Z,32.60
2023-03-21T16:41:28.002Z,34.00
2023-03-21T16:43:55.207Z,72.72
2023-03-21T16:46:24.608Z,170.32
2023-03-21T16:48:53.819Z,39.83
2023-03-21T16:53:49.272Z,17.30
2023-03-21T16:56:19.780Z,16.52
2023-03-21T16:58:46.487Z,16.55
2023-03-21T17:01:14.859Z,15.82
2023-03-21T17:03:43.188Z,13.18
2023-03-21T17:06:14.456Z,10.35
2023-03-21T17:08:41.090Z,15.88
2023-03-21T17:11:09.347Z,13.32
2023-03-21T17:13:36.002Z,13.90
2023-03-21T17:16:02.827Z,16.27
2023-03-21T17:18:29.639Z,14.63
2023-03-21T17:20:57.645Z,12.65
2023-03-21T17:23:24.262Z,13.60
2023-03-21T17:25:50.845Z,12.63
2023-03-21T17:28:17.482Z,11.25
2023-03-21T17:30:44.553Z,14.35
2023-03-21T17:33:11.277Z,15.35
2023-03-21T17:35:38.066Z,12.65
2023-03-21T17:38:11.753Z,11.77
2023-03-21T17:40:38.732Z,11.73
2023-03-21T17:43:06.026Z,13.35
2023-03-21T17:45:32.827Z,12.50
2023-03-21T17:47:59.483Z,13.90
2023-03-21T17:50:30.819Z,13.35
2023-03-21T17:52:57.449Z,13.23
2023-03-21T17:55:25.876Z,13.60
2023-03-21T17:57:52.496Z,13.73
2023-03-21T18:00:21.934Z,12.35
2023-03-21T18:02:48.562Z,14.52
2023-03-21T18:05:15.662Z,14.48
2023-03-21T18:08:08.954Z,14.05
2023-03-21T18:10:31.872Z,13.35
2023-03-21T18:12:58.721Z,16.60
2023-03-21T18:15:30.240Z,24.05
2023-03-21T18:17:57.326Z,15.70
2023-03-21T18:20:25.216Z,18.35
2023-03-21T18:22:51.850Z,13.43
2023-03-21T18:25:18.585Z,15.18
2023-03-21T18:28:09.544Z,15.18
2023-03-21T18:30:53.555Z,14.90
2023-03-21T18:33:20.192Z,21.05
2023-03-21T18:35:47.145Z,18.00
2023-03-21T18:38:13.846Z,17.55
2023-03-21T18:40:40.846Z,16.05
2023-03-21T18:43:55.798Z,17.33
2023-03-21T18:45:55.916Z,17.00
2023-03-21T18:48:22.726Z,21.10
2023-03-21T18:50:49.522Z,19.73
2023-03-21T18:53:16.153Z,19.45
2023-03-21T18:55:46.694Z,21.83
2023-03-21T18:58:15.620Z,22.88
2023-03-21T19:00:43.162Z,17.00
2023-03-21T19:03:21.775Z,26.77
2023-03-21T19:05:58.628Z,20.63
2023-03-21T19:08:25.343Z,16.77
2023-03-21T19:10:51.957Z,21.17
2023-03-21T19:13:20.122Z,20.98
2023-03-21T19:15:49.554Z,19.05
2023-03-21T19:21:03.755Z,25.33
2023-03-21T19:23:40.793Z,19.27
2023-03-21T19:26:16.706Z,21.77
2023-03-21T19:28:44.738Z,17.92
2023-03-21T19:31:11.401Z,18.40
2023-03-21T19:33:38.282Z,25.45
2023-03-21T19:36:17.636Z,26.77
2023-03-21T19:38:47.668Z,25.08
2023-03-21T19:41:14.389Z,22.92
2023-03-21T19:43:52.804Z,23.55
2023-03-21T19:46:22.056Z,22.75
2023-03-21T19:48:48.944Z,24.95
2023-03-21T19:51:31.144Z,29.70
2023-03-21T19:53:58.315Z,33.17
2023-03-21T19:56:27.418Z,27.27
2023-03-21T19:58:54.543Z,27.92
2023-03-21T20:01:23.575Z,27.33
2023-03-21T20:03:50.749Z,27.58
2023-03-21T20:06:17.464Z,27.15
2023-03-21T20:11:30.746Z,26.30
2023-03-21T20:13:57.352Z,27.20
2023-03-21T20:16:25.497Z,34.00
2023-03-21T20:18:53.467Z,30.75
2023-03-21T20:21:25.409Z,32.42
2023-03-21T20:23:52.462Z,38.53
2023-03-21T20:26:19.117Z,40.30
2023-03-21T20:28:56.686Z,34.08
2023-03-21T20:31:34.163Z,35.00
2023-03-21T20:34:01.026Z,36.97
2023-03-21T20:36:43.893Z,35.30
2023-03-21T20:39:10.598Z,32.78
2023-03-21T20:41:38.177Z,36.55
2023-03-21T20:46:53.465Z,37.03
2023-03-21T20:49:20.620Z,32.00
2023-03-21T20:52:49.751Z,31.15
2023-03-21T20:54:34.143Z,32.25
2023-03-21T20:57:00.805Z,28.15
2023-03-21T20:59:28.302Z,32.55
2023-03-21T21:01:57.848Z,30.25
2023-03-21T21:04:42.829Z,28.95
2023-03-21T21:07:12.535Z,30.42
2023-03-21T21:09:39.152Z,28.67
2023-03-21T21:12:07.895Z,29.23
2023-03-21T21:14:35.612Z,30.23
2023-03-21T21:17:20.842Z,27.98
2023-03-21T21:19:51.007Z,31.35
2023-03-21T21:22:17.718Z,31.85
2023-03-21T21:24:44.662Z,27.85
2023-03-21T21:27:11.314Z,28.63
2023-03-21T21:29:38.656Z,28.08
2023-03-21T21:32:06.583Z,28.25
2023-03-21T21:34:33.186Z,30.95
2023-03-21T21:36:59.784Z,31.30
2023-03-21T21:39:26.438Z,32.15
2023-03-21T21:41:53.850Z,31.75
2023-03-21T21:44:20.504Z,32.50
2023-03-21T21:46:47.233Z,33.00
2023-03-21T21:49:15.295Z,33.15
2023-03-21T21:51:42.043Z,33.97
2023-03-21T21:54:08.769Z,33.05
2023-03-21T21:56:37.823Z,34.70
2023-03-21T21:59:04.639Z,32.03
2023-03-21T22:01:32.376Z,31.85
2023-03-21T22:03:59.189Z,31.40
2023-03-21T22:06:27.178Z,29.92
2023-03-21T22:08:53.807Z,29.92
2023-03-21T22:11:20.548Z,34.17
2023-03-21T22:13:47.646Z,32.72
2023-03-21T22:16:14.344Z,30.58
2023-03-21T22:18:41.001Z,32.95
2023-03-21T22:21:08.167Z,28.48
2023-03-21T22:23:36.240Z,34.70
2023-03-21T22:26:02.837Z,31.85
2023-03-21T22:28:30.526Z,27.48
2023-03-21T22:30:57.171Z,28.23
2023-03-21T22:33:23.840Z,33.85
2023-03-21T22:35:52.630Z,29.88
2023-03-21T22:38:19.605Z,31.23
2023-03-21T22:40:53.418Z,26.15
2023-03-21T22:43:20.071Z,29.83
2023-03-21T22:45:46.738Z,27.55
2023-03-21T22:48:13.447Z,30.50
2023-03-21T22:50:41.439Z,35.20
2023-03-21T22:53:08.977Z,36.38
2023-03-21T22:55:35.604Z,29.38
2023-03-21T22:58:03.644Z,29.15
2023-03-21T23:00:30.342Z,28.75
2023-03-21T23:02:57.038Z,38.28
2023-03-21T23:05:23.687Z,32.53
2023-03-21T23:07:50.322Z,34.60
2023-03-21T23:10:17.854Z,29.63
2023-03-21T23:12:44.681Z,36.22
2023-03-21T23:15:12.852Z,34.83
2023-03-21T23:17:39.621Z,34.90
2023-03-21T23:20:07.331Z,30.13
2023-03-21T23:22:35.020Z,29.80
2023-03-21T23:25:01.978Z,30.73
2023-03-21T23:27:28.955Z,29.00
2023-03-21T23:29:55.555Z,30.13
2023-03-21T23:32:23.906Z,28.05
2023-03-21T23:34:50.563Z,27.23
2023-03-21T23:37:17.186Z,24.90
2023-03-21T23:39:43.732Z,23.45
2023-03-21T23:42:10.662Z,21.85
2023-03-21T23:44:37.376Z,27.67
2023-03-21T23:47:04.050Z,26.33
2023-03-21T23:49:32.082Z,24.52
2023-03-21T23:51:58.734Z,23.63
2023-03-21T23:54:25.480Z,21.45
2023-03-21T23:56:52.095Z,20.95
2023-03-21T23:59:18.677Z,27.48
